createdAt,value
2023-02-25T00:00:53.709Z,7.40
2023-02-25T00:02:03.408Z,7.10
2023-02-25T00:02:54.851Z,7.10
2023-02-25T00:03:53.024Z,7.10
2023-02-25T00:04:52.941Z,7.10
2023-02-25T00:05:52.943Z,6.70
2023-02-25T00:06:53.651Z,6.90
2023-02-25T00:07:52.928Z,6.40
2023-02-25T00:08:52.902Z,7.30
2023-02-25T00:09:52.889Z,6.80
2023-02-25T00:10:52.923Z,6.80
2023-02-25T00:11:52.928Z,7.00
2023-02-25T00:12:52.827Z,6.50
2023-02-25T00:13:52.843Z,6.90
2023-02-25T00:14:52.873Z,7.00
2023-02-25T00:15:52.818Z,7.00
2023-02-25T00:16:53.117Z,6.50
2023-02-25T00:17:52.779Z,6.60
2023-02-25T00:18:52.806Z,6.40
2023-02-25T00:19:52.770Z,7.10
2023-02-25T00:20:52.747Z,6.40
2023-02-25T00:21:52.734Z,6.50
2023-02-25T00:22:52.714Z,6.80
2023-02-25T00:23:52.754Z,6.50
2023-02-25T00:24:52.663Z,6.30
2023-02-25T00:25:52.660Z,6.70
2023-02-25T00:26:52.648Z,6.80
2023-02-25T00:27:52.640Z,6.60
2023-02-25T00:28:52.616Z,7.10
2023-02-25T00:29:52.627Z,7.10
2023-02-25T00:30:52.672Z,6.40
2023-02-25T00:31:52.839Z,6.60
2023-02-25T00:32:52.626Z,6.50
2023-02-25T00:33:52.588Z,6.40
2023-02-25T00:34:52.552Z,6.40
2023-02-25T00:35:52.572Z,5.80
2023-02-25T00:36:52.575Z,5.90
2023-02-25T00:37:52.699Z,6.20
2023-02-25T00:38:52.502Z,6.50
2023-02-25T00:39:52.527Z,5.90
2023-02-25T00:40:52.480Z,6.80
2023-02-25T00:41:52.488Z,5.50
2023-02-25T00:42:52.458Z,5.90
2023-02-25T00:43:52.440Z,5.70
2023-02-25T00:44:52.461Z,5.80
2023-02-25T00:45:52.781Z,5.30
2023-02-25T00:46:52.511Z,5.40
2023-02-25T00:47:52.431Z,5.70
2023-02-25T00:48:52.407Z,5.30
2023-02-25T00:49:52.408Z,5.40
2023-02-25T00:50:52.404Z,5.30
2023-02-25T00:51:52.369Z,5.80
2023-02-25T00:52:53.094Z,5.30
2023-02-25T00:53:52.416Z,5.60
2023-02-25T00:54:52.473Z,5.40
2023-02-25T00:55:52.512Z,5.70
2023-02-25T00:56:52.343Z,5.20
2023-02-25T00:57:52.336Z,5.80
2023-02-25T00:58:52.372Z,5.30
2023-02-25T00:59:52.313Z,5.30
2023-02-25T01:00:52.353Z,5.00
2023-02-25T01:01:52.313Z,5.10
2023-02-25T01:02:52.333Z,5.10
2023-02-25T01:03:52.208Z,6.00
2023-02-25T01:04:52.214Z,5.60
2023-02-25T01:05:52.261Z,5.90
2023-02-25T01:06:52.202Z,5.80
2023-02-25T01:07:52.170Z,5.20
2023-02-25T01:08:52.176Z,5.60
2023-02-25T01:09:52.177Z,5.60
2023-02-25T01:10:52.155Z,5.80
2023-02-25T01:11:52.115Z,5.40
2023-02-25T01:12:52.984Z,5.60
2023-02-25T01:13:52.864Z,5.10
2023-02-25T01:14:52.567Z,5.40
2023-02-25T01:15:52.240Z,6.30
2023-02-25T01:16:52.081Z,5.60
2023-02-25T01:17:52.040Z,5.00
2023-02-25T01:18:52.075Z,6.90
2023-02-25T01:19:52.781Z,6.90
2023-02-25T01:20:52.047Z,6.20
2023-02-25T01:21:52.006Z,5.30
2023-02-25T01:22:52.022Z,5.50
2023-02-25T01:23:51.998Z,5.70
2023-02-25T01:24:52.076Z,5.40
2023-02-25T01:25:51.966Z,5.80
2023-02-25T01:26:51.972Z,6.70
2023-02-25T01:27:51.941Z,6.30
2023-02-25T01:28:51.946Z,6.60
2023-02-25T01:29:51.943Z,6.40
2023-02-25T01:30:52.013Z,5.90
2023-02-25T01:31:52.111Z,5.30
2023-02-25T01:32:51.938Z,6.10
2023-02-25T01:33:52.551Z,5.70
2023-02-25T01:34:52.611Z,6.10
2023-02-25T01:35:51.882Z,6.00
2023-02-25T01:36:51.875Z,5.80
2023-02-25T01:37:51.833Z,6.20
2023-02-25T01:38:51.831Z,6.30
2023-02-25T01:39:51.804Z,5.60
2023-02-25T01:40:51.827Z,6.10
2023-02-25T01:41:51.804Z,6.30
2023-02-25T01:42:51.801Z,6.10
2023-02-25T01:43:51.766Z,6.70
2023-02-25T01:44:51.823Z,6.20
2023-02-25T01:45:51.763Z,6.00
2023-02-25T01:46:51.869Z,6.60
2023-02-25T01:47:51.781Z,6.70
2023-02-25T01:48:51.761Z,6.80
2023-02-25T01:49:51.710Z,5.90
2023-02-25T01:50:51.712Z,7.00
2023-02-25T01:51:51.717Z,6.70
2023-02-25T01:52:51.717Z,6.30
2023-02-25T01:53:51.701Z,5.50
2023-02-25T01:54:51.837Z,7.00
2023-02-25T01:55:51.707Z,6.50
2023-02-25T01:56:51.657Z,6.70
2023-02-25T01:57:51.660Z,6.50
2023-02-25T01:58:51.612Z,6.40
2023-02-25T01:59:51.596Z,6.20
2023-02-25T02:00:51.645Z,6.50
2023-02-25T02:01:51.580Z,6.50
2023-02-25T02:02:51.664Z,7.30
2023-02-25T02:03:51.542Z,7.00
2023-02-25T02:04:51.558Z,6.90
2023-02-25T02:05:51.528Z,6.10
2023-02-25T02:06:51.529Z,6.10
2023-02-25T02:07:51.550Z,6.50
2023-02-25T02:08:51.500Z,6.10
2023-02-25T02:09:51.490Z,6.50
2023-02-25T02:10:51.488Z,6.40
2023-02-25T02:11:51.440Z,6.10
2023-02-25T02:12:51.460Z,6.80
2023-02-25T02:13:51.436Z,6.50
2023-02-25T02:14:51.437Z,6.30
2023-02-25T02:15:51.435Z,6.90
2023-02-25T02:16:51.427Z,6.90
2023-02-25T02:17:51.518Z,6.40
2023-02-25T02:18:51.385Z,6.40
2023-02-25T02:19:51.349Z,6.60
2023-02-25T02:20:51.396Z,6.90
2023-02-25T02:21:51.367Z,6.20
2023-02-25T02:22:51.370Z,6.70
2023-02-25T02:23:51.330Z,7.10
2023-02-25T02:24:51.327Z,6.80
2023-02-25T02:25:51.299Z,6.80
2023-02-25T02:26:51.319Z,6.50
2023-02-25T02:27:51.256Z,6.40
2023-02-25T02:28:51.301Z,7.30
2023-02-25T02:29:51.259Z,6.40
2023-02-25T02:30:51.285Z,7.00
2023-02-25T02:31:51.401Z,7.30
2023-02-25T02:32:51.237Z,7.40
2023-02-25T02:33:51.210Z,7.40
2023-02-25T02:34:51.216Z,7.10
2023-02-25T02:35:51.223Z,7.30
2023-02-25T02:36:51.240Z,7.00
2023-02-25T02:37:51.233Z,7.30
2023-02-25T02:38:51.196Z,7.70
2023-02-25T02:39:51.197Z,7.30
2023-02-25T02:40:51.213Z,7.90
2023-02-25T02:41:51.179Z,8.00
2023-02-25T02:42:51.149Z,8.20
2023-02-25T02:43:51.182Z,8.10
2023-02-25T02:44:51.146Z,8.60
2023-02-25T02:45:51.159Z,8.00
2023-02-25T02:46:51.099Z,7.80
2023-02-25T02:47:51.032Z,8.90
2023-02-25T02:48:51.061Z,7.90
2023-02-25T02:49:51.045Z,8.20
2023-02-25T02:50:51.021Z,8.60
2023-02-25T02:51:50.989Z,9.10
2023-02-25T02:52:51.028Z,9.00
2023-02-25T02:53:51.021Z,8.00
2023-02-25T02:54:50.979Z,8.40
2023-02-25T02:55:50.994Z,8.40
2023-02-25T02:56:50.974Z,9.70
2023-02-25T02:57:50.924Z,8.60
2023-02-25T02:58:50.929Z,8.90
2023-02-25T02:59:50.946Z,8.90
2023-02-25T03:00:50.995Z,8.80
2023-02-25T03:01:50.877Z,8.60
2023-02-25T03:02:50.893Z,8.40
2023-02-25T03:03:50.885Z,9.00
2023-02-25T03:04:50.885Z,8.70
2023-02-25T03:05:50.839Z,8.80
2023-02-25T03:06:50.839Z,8.90
2023-02-25T03:07:51.606Z,9.00
2023-02-25T03:08:50.862Z,8.40
2023-02-25T03:09:50.846Z,8.80
2023-02-25T03:10:50.846Z,8.90
2023-02-25T03:11:51.482Z,8.90
2023-02-25T03:12:50.825Z,8.50
2023-02-25T03:13:50.740Z,9.20
2023-02-25T03:14:51.479Z,8.50
2023-02-25T03:15:50.714Z,9.00
2023-02-25T03:16:50.780Z,9.10
2023-02-25T03:17:50.836Z,8.50
2023-02-25T03:18:50.756Z,8.50
2023-02-25T03:19:50.668Z,8.80
2023-02-25T03:20:50.684Z,8.60
2023-02-25T03:21:50.684Z,9.00
2023-02-25T03:22:50.673Z,8.60
2023-02-25T03:23:50.641Z,8.50
2023-02-25T03:24:50.645Z,9.40
2023-02-25T03:25:50.632Z,8.90
2023-02-25T03:26:50.628Z,8.60
2023-02-25T03:27:50.578Z,9.60
2023-02-25T03:28:50.603Z,9.80
2023-02-25T03:29:50.568Z,9.30
2023-02-25T03:30:50.656Z,9.00
2023-02-25T03:31:50.647Z,9.20
2023-02-25T03:32:50.628Z,9.20
2023-02-25T03:33:50.514Z,9.40
2023-02-25T03:34:50.534Z,9.70
2023-02-25T03:35:50.500Z,10.10
2023-02-25T03:36:51.388Z,9.60
2023-02-25T03:37:50.511Z,10.40
2023-02-25T03:38:50.521Z,9.80
2023-02-25T03:39:50.526Z,9.80
2023-02-25T03:40:50.462Z,10.90
2023-02-25T03:41:50.459Z,10.10
2023-02-25T03:42:50.449Z,9.60
2023-02-25T03:43:50.417Z,10.50
2023-02-25T03:44:50.423Z,9.90
2023-02-25T03:45:50.555Z,9.60
2023-02-25T03:46:50.393Z,10.60
2023-02-25T03:47:50.372Z,9.90
2023-02-25T03:48:50.373Z,9.60
2023-02-25T03:49:50.348Z,9.40
2023-02-25T03:50:50.362Z,10.50
2023-02-25T03:51:50.330Z,10.90
2023-02-25T03:52:50.326Z,9.70
2023-02-25T03:53:50.306Z,9.50
2023-02-25T03:54:50.323Z,10.20
2023-02-25T03:55:50.276Z,9.40
2023-02-25T03:56:50.290Z,9.70
2023-02-25T03:57:50.273Z,9.20
2023-02-25T03:58:50.260Z,9.80
2023-02-25T03:59:50.236Z,9.20
2023-02-25T04:00:50.226Z,9.30
2023-02-25T04:01:50.280Z,9.80
2023-02-25T04:02:50.229Z,10.50
2023-02-25T04:03:50.178Z,9.50
2023-02-25T04:04:50.250Z,9.90
2023-02-25T04:05:50.175Z,9.80
2023-02-25T04:06:50.164Z,9.90
2023-02-25T04:07:50.128Z,9.80
2023-02-25T04:08:50.135Z,9.10
2023-02-25T04:09:50.128Z,9.00
2023-02-25T04:10:50.128Z,8.80
2023-02-25T04:11:50.095Z,9.10
2023-02-25T04:12:50.093Z,9.40
2023-02-25T04:13:50.073Z,9.90
2023-02-25T04:14:50.100Z,9.20
2023-02-25T04:15:50.114Z,9.50
2023-02-25T04:16:50.089Z,9.90
2023-02-25T04:17:50.049Z,9.50
2023-02-25T04:18:50.028Z,9.80
2023-02-25T04:19:50.000Z,9.40
2023-02-25T04:20:49.999Z,10.30
2023-02-25T04:21:49.973Z,9.80
2023-02-25T04:22:49.996Z,9.70
2023-02-25T04:23:49.961Z,9.60
2023-02-25T04:24:49.959Z,9.20
2023-02-25T04:25:49.921Z,9.50
2023-02-25T04:26:49.932Z,9.20
2023-02-25T04:27:49.903Z,10.00
2023-02-25T04:28:49.939Z,9.70
2023-02-25T04:29:49.893Z,9.70
2023-02-25T04:30:49.990Z,9.70
2023-02-25T04:31:50.121Z,9.30
2023-02-25T04:32:49.969Z,10.00
2023-02-25T04:33:49.873Z,9.30
2023-02-25T04:34:49.851Z,9.60
2023-02-25T04:35:49.820Z,10.40
2023-02-25T04:36:49.820Z,9.60
2023-02-25T04:37:50.519Z,9.80
2023-02-25T04:38:49.799Z,9.70
2023-02-25T04:39:49.803Z,9.90
2023-02-25T04:40:49.799Z,10.10
2023-02-25T04:41:49.750Z,10.60
2023-02-25T04:42:49.757Z,11.00
2023-02-25T04:43:49.722Z,10.30
2023-02-25T04:44:49.738Z,10.40
2023-02-25T04:45:49.730Z,10.10
2023-02-25T04:46:49.801Z,10.50
2023-02-25T04:47:49.674Z,10.20
2023-02-25T04:48:49.704Z,10.90
2023-02-25T04:49:49.652Z,10.00
2023-02-25T04:50:49.663Z,11.00
2023-02-25T04:51:49.631Z,11.10
2023-02-25T04:52:49.662Z,10.60
2023-02-25T04:53:49.632Z,10.70
2023-02-25T04:54:49.613Z,10.90
2023-02-25T04:55:49.616Z,10.90
2023-02-25T04:56:49.578Z,10.50
2023-02-25T04:57:49.574Z,10.80
2023-02-25T04:58:49.582Z,10.10
2023-02-25T04:59:49.656Z,11.00
2023-02-25T05:00:49.594Z,10.80
2023-02-25T05:01:49.652Z,10.20
2023-02-25T05:02:49.537Z,10.70
2023-02-25T05:03:49.577Z,11.20
2023-02-25T05:04:49.557Z,11.40
2023-02-25T05:05:49.532Z,11.10
2023-02-25T05:06:49.478Z,11.10
2023-02-25T05:07:49.515Z,11.60
2023-02-25T05:08:49.469Z,10.70
2023-02-25T05:09:49.478Z,11.90
2023-02-25T05:10:49.452Z,11.70
2023-02-25T05:11:49.492Z,11.20
2023-02-25T05:12:49.404Z,12.20
2023-02-25T05:13:49.436Z,11.40
2023-02-25T05:14:49.403Z,11.30
2023-02-25T05:15:49.497Z,11.50
2023-02-25T05:16:49.398Z,12.20
2023-02-25T05:17:49.431Z,11.70
2023-02-25T05:18:49.495Z,11.40
2023-02-25T05:19:49.349Z,11.70
2023-02-25T05:20:49.341Z,10.80
2023-02-25T05:21:49.355Z,11.70
2023-02-25T05:22:49.291Z,11.70
2023-02-25T05:23:49.301Z,11.30
2023-02-25T05:24:49.317Z,11.90
2023-02-25T05:25:49.376Z,11.10
2023-02-25T05:26:49.229Z,11.00
2023-02-25T05:27:49.266Z,10.70
2023-02-25T05:28:49.216Z,10.70
2023-02-25T05:29:49.252Z,11.00
2023-02-25T05:30:49.219Z,11.10
2023-02-25T05:31:49.314Z,11.10
2023-02-25T05:32:49.359Z,11.20
2023-02-25T05:33:49.180Z,10.60
2023-02-25T05:34:49.162Z,10.40
2023-02-25T05:35:49.253Z,11.10
2023-02-25T05:36:49.120Z,10.50
2023-02-25T05:37:49.148Z,11.30
2023-02-25T05:38:49.602Z,11.00
2023-02-25T05:39:49.824Z,10.80
2023-02-25T05:40:49.076Z,10.70
2023-02-25T05:41:49.098Z,11.60
2023-02-25T05:42:49.036Z,10.90
2023-02-25T05:43:49.108Z,11.80
2023-02-25T05:44:49.065Z,10.80
2023-02-25T05:45:49.188Z,10.10
2023-02-25T05:46:49.051Z,10.90
2023-02-25T05:47:49.043Z,11.20
2023-02-25T05:48:49.008Z,11.70
2023-02-25T05:49:49.064Z,11.00
2023-02-25T05:50:48.993Z,11.20
2023-02-25T05:51:49.005Z,11.60
2023-02-25T05:52:48.985Z,10.70
2023-02-25T05:53:49.027Z,11.10
2023-02-25T05:54:49.202Z,11.80
2023-02-25T05:55:48.964Z,10.70
2023-02-25T05:56:48.962Z,10.90
2023-02-25T05:57:48.937Z,11.20
2023-02-25T05:58:48.876Z,11.00
2023-02-25T05:59:49.724Z,11.60
2023-02-25T06:00:48.881Z,12.20
2023-02-25T06:01:49.019Z,11.00
2023-02-25T06:02:48.880Z,10.90
2023-02-25T06:03:48.887Z,10.40
2023-02-25T06:04:48.830Z,11.90
2023-02-25T06:05:48.854Z,11.10
2023-02-25T06:06:48.829Z,10.60
2023-02-25T06:07:48.833Z,11.30
2023-02-25T06:08:48.790Z,10.70
2023-02-25T06:09:48.789Z,11.60
2023-02-25T06:10:48.738Z,10.90
2023-02-25T06:11:48.767Z,11.90
2023-02-25T06:12:48.799Z,11.10
2023-02-25T06:13:48.751Z,11.30
2023-02-25T06:14:48.719Z,11.80
2023-02-25T06:15:48.761Z,11.10
2023-02-25T06:16:48.698Z,11.30
2023-02-25T06:17:48.701Z,10.60
2023-02-25T06:18:48.706Z,10.40
2023-02-25T06:19:48.718Z,10.60
2023-02-25T06:20:48.671Z,10.90
2023-02-25T06:21:48.692Z,11.30
2023-02-25T06:22:48.589Z,11.10
2023-02-25T06:23:48.604Z,10.90
2023-02-25T06:24:48.563Z,10.60
2023-02-25T06:25:48.648Z,11.60
2023-02-25T06:26:48.541Z,11.20
2023-02-25T06:27:48.710Z,10.70
2023-02-25T06:28:48.549Z,11.40
2023-02-25T06:29:48.526Z,11.80
2023-02-25T06:30:48.516Z,10.80
2023-02-25T06:31:48.597Z,11.00
2023-02-25T06:32:48.594Z,11.70
2023-02-25T06:33:48.491Z,11.90
2023-02-25T06:34:48.945Z,11.00
2023-02-25T06:35:48.467Z,11.60
2023-02-25T06:36:48.449Z,12.40
2023-02-25T06:37:48.463Z,11.00
2023-02-25T06:38:48.406Z,12.00
2023-02-25T06:39:48.453Z,11.50
2023-02-25T06:40:49.104Z,11.90
2023-02-25T06:41:48.447Z,11.50
2023-02-25T06:42:48.375Z,11.90
2023-02-25T06:43:48.750Z,11.70
2023-02-25T06:44:48.372Z,11.30
2023-02-25T06:45:48.447Z,11.20
2023-02-25T06:46:48.332Z,11.80
2023-02-25T06:47:49.203Z,12.00
2023-02-25T06:48:48.296Z,12.20
2023-02-25T06:49:48.306Z,11.20
2023-02-25T06:50:48.274Z,11.60
2023-02-25T06:51:48.285Z,10.90
2023-02-25T06:52:48.262Z,12.00
2023-02-25T06:53:48.258Z,11.70
2023-02-25T06:54:48.215Z,11.90
2023-02-25T06:55:48.246Z,11.60
2023-02-25T06:56:48.241Z,10.80
2023-02-25T06:57:48.250Z,11.60
2023-02-25T06:58:48.199Z,11.40
2023-02-25T06:59:48.196Z,11.70
2023-02-25T07:00:48.724Z,12.40
2023-02-25T07:01:48.185Z,11.30
2023-02-25T07:02:48.142Z,11.60
2023-02-25T07:03:48.157Z,11.70
2023-02-25T07:04:48.158Z,11.80
2023-02-25T07:05:48.347Z,12.30
2023-02-25T07:06:48.089Z,11.40
2023-02-25T07:07:48.126Z,11.40
2023-02-25T07:08:48.466Z,11.60
2023-02-25T07:09:48.092Z,12.50
2023-02-25T07:10:48.051Z,11.70
2023-02-25T07:11:48.050Z,12.00
2023-02-25T07:12:48.085Z,11.80
2023-02-25T07:13:48.747Z,10.80
2023-02-25T07:14:48.071Z,11.80
2023-02-25T07:15:48.135Z,10.90
2023-02-25T07:16:49.625Z,11.80
2023-02-25T07:17:48.053Z,11.50
2023-02-25T07:18:57.467Z,11.60
2023-02-25T07:19:48.007Z,12.10
2023-02-25T07:20:48.847Z,12.30
2023-02-25T07:21:48.759Z,11.30
2023-02-25T07:22:48.655Z,11.30
2023-02-25T07:23:47.938Z,11.10
2023-02-25T07:24:48.766Z,10.50
2023-02-25T07:25:48.287Z,11.30
2023-02-25T07:26:47.860Z,10.80
2023-02-25T07:27:47.876Z,10.50
2023-02-25T07:28:47.861Z,9.90
2023-02-25T07:29:47.846Z,9.70
2023-02-25T07:30:47.957Z,10.10
2023-02-25T07:31:48.011Z,10.90
2023-02-25T07:32:47.879Z,10.20
2023-02-25T07:33:47.805Z,10.90
2023-02-25T07:34:48.557Z,10.10
2023-02-25T07:35:47.811Z,11.40
2023-02-25T07:36:47.745Z,9.70
2023-02-25T07:37:47.758Z,9.70
2023-02-25T07:38:48.665Z,10.20
2023-02-25T07:39:47.887Z,9.80
2023-02-25T07:40:47.712Z,9.40
2023-02-25T07:41:48.648Z,10.50
2023-02-25T07:42:47.789Z,9.80
2023-02-25T07:43:47.798Z,9.70
2023-02-25T07:44:47.698Z,10.00
2023-02-25T07:45:47.715Z,9.40
2023-02-25T07:46:47.668Z,10.60
2023-02-25T07:47:47.645Z,9.30
2023-02-25T07:48:47.669Z,10.30
2023-02-25T07:49:47.633Z,10.40
2023-02-25T07:50:47.593Z,9.80
2023-02-25T07:51:47.612Z,9.40
2023-02-25T07:52:47.587Z,9.30
2023-02-25T07:53:47.571Z,9.40
2023-02-25T07:54:47.552Z,9.60
2023-02-25T07:55:48.289Z,9.90
2023-02-25T07:56:47.576Z,9.60
2023-02-25T07:57:47.531Z,10.50
2023-02-25T07:58:47.511Z,10.10
2023-02-25T07:59:47.523Z,9.90
2023-02-25T08:00:47.472Z,10.30
2023-02-25T08:01:47.514Z,9.80
2023-02-25T08:02:48.484Z,10.20
2023-02-25T08:03:47.620Z,10.20
2023-02-25T08:04:47.469Z,11.30
2023-02-25T08:05:47.437Z,9.70
2023-02-25T08:06:47.409Z,9.10
2023-02-25T08:07:47.429Z,9.90
2023-02-25T08:08:47.381Z,9.90
2023-02-25T08:09:47.390Z,9.50
2023-02-25T08:10:47.363Z,9.50
2023-02-25T08:11:47.377Z,9.40
2023-02-25T08:12:47.348Z,9.10
2023-02-25T08:13:47.366Z,9.20
2023-02-25T08:14:47.307Z,8.80
2023-02-25T08:15:47.393Z,10.10
2023-02-25T08:16:47.309Z,8.80
2023-02-25T08:17:47.300Z,8.50
2023-02-25T08:18:47.298Z,9.80
2023-02-25T08:19:47.515Z,9.50
2023-02-25T08:20:47.277Z,9.50
2023-02-25T08:21:48.116Z,9.80
2023-02-25T08:22:47.272Z,8.90
2023-02-25T08:23:47.555Z,9.80
2023-02-25T08:24:47.207Z,10.80
2023-02-25T08:25:47.226Z,10.50
2023-02-25T08:26:47.195Z,10.40
2023-02-25T08:27:47.376Z,10.20
2023-02-25T08:28:47.162Z,10.00
2023-02-25T08:29:47.160Z,10.70
2023-02-25T08:30:47.209Z,10.10
2023-02-25T08:31:47.383Z,9.80
2023-02-25T08:32:47.315Z,10.30
2023-02-25T08:33:47.138Z,10.20
2023-02-25T08:34:48.804Z,10.30
2023-02-25T08:35:47.108Z,10.60
2023-02-25T08:36:47.072Z,10.10
2023-02-25T08:37:47.076Z,10.00
2023-02-25T08:38:47.052Z,9.70
2023-02-25T08:39:47.055Z,10.10
2023-02-25T08:40:47.019Z,10.30
2023-02-25T08:41:47.068Z,10.30
2023-02-25T08:42:46.997Z,10.10
2023-02-25T08:43:47.025Z,11.20
2023-02-25T08:44:47.053Z,9.70
2023-02-25T08:45:47.062Z,9.50
2023-02-25T08:46:47.451Z,9.70
2023-02-25T08:47:46.968Z,10.00
2023-02-25T08:48:46.934Z,9.80
2023-02-25T08:49:47.066Z,9.80
2023-02-25T08:50:47.052Z,10.20
2023-02-25T08:51:46.990Z,9.70
2023-02-25T08:52:46.879Z,9.30
2023-02-25T08:53:46.921Z,9.70
2023-02-25T08:54:46.862Z,9.80
2023-02-25T08:55:46.924Z,9.50
2023-02-25T08:56:47.045Z,9.60
2023-02-25T08:57:46.888Z,9.00
2023-02-25T08:58:46.823Z,9.00
2023-02-25T08:59:46.830Z,9.50
2023-02-25T09:00:46.983Z,9.60
2023-02-25T09:01:46.885Z,9.80
2023-02-25T09:02:46.832Z,8.90
2023-02-25T09:03:46.825Z,9.80
2023-02-25T09:04:47.680Z,9.60
2023-02-25T09:05:46.777Z,10.50
2023-02-25T09:06:47.719Z,9.70
2023-02-25T09:07:46.746Z,9.50
2023-02-25T09:08:46.697Z,8.70
2023-02-25T09:09:46.709Z,8.90
2023-02-25T09:10:50.494Z,9.50
2023-02-25T09:11:47.414Z,8.60
2023-02-25T09:12:46.682Z,8.70
2023-02-25T09:13:46.699Z,8.60
2023-02-25T09:14:46.874Z,8.20
2023-02-25T09:15:46.633Z,8.20
2023-02-25T09:16:46.644Z,8.70
2023-02-25T09:17:46.618Z,7.80
2023-02-25T09:18:46.663Z,8.10
2023-02-25T09:19:46.610Z,8.10
2023-02-25T09:20:46.586Z,7.80
2023-02-25T09:21:47.475Z,7.90
2023-02-25T09:22:46.576Z,7.80
2023-02-25T09:23:46.577Z,7.30
2023-02-25T09:24:47.423Z,8.10
2023-02-25T09:25:46.569Z,7.80
2023-02-25T09:26:46.545Z,8.40
2023-02-25T09:27:46.497Z,8.60
2023-02-25T09:28:46.514Z,8.10
2023-02-25T09:29:46.454Z,8.40
2023-02-25T09:30:46.503Z,7.10
2023-02-25T09:31:46.592Z,7.10
2023-02-25T09:32:46.579Z,5.60
2023-02-25T09:33:46.416Z,4.40
2023-02-25T09:34:46.424Z,3.50
2023-02-25T09:35:46.702Z,2.40
2023-02-25T09:36:46.411Z,2.20
2023-02-25T09:37:46.627Z,1.50
2023-02-25T09:38:46.400Z,1.50
2023-02-25T09:39:46.352Z,1.10
2023-02-25T09:40:46.355Z,1.40
2023-02-25T09:41:46.324Z,1.00
2023-02-25T09:42:46.350Z,0.90
2023-02-25T09:43:46.304Z,0.90
2023-02-25T09:44:47.059Z,0.60
2023-02-25T09:45:46.338Z,0.50
2023-02-25T09:46:46.294Z,0.60
2023-02-25T09:47:46.336Z,0.60
2023-02-25T09:48:46.402Z,0.70
2023-02-25T09:49:46.237Z,0.70
2023-02-25T09:50:46.310Z,0.60
2023-02-25T09:51:46.211Z,0.70
2023-02-25T09:52:46.243Z,0.60
2023-02-25T09:53:46.188Z,1.20
2023-02-25T09:54:46.234Z,1.50
2023-02-25T09:55:46.178Z,1.10
2023-02-25T09:56:46.193Z,0.70
2023-02-25T09:57:46.167Z,0.90
2023-02-25T09:58:46.184Z,0.90
2023-02-25T09:59:46.115Z,0.50
2023-02-25T10:00:46.163Z,0.50
2023-02-25T10:01:46.948Z,0.70
2023-02-25T10:02:46.321Z,0.70
2023-02-25T10:03:46.078Z,0.80
2023-02-25T10:04:46.930Z,0.80
2023-02-25T10:05:46.842Z,0.70
2023-02-25T10:06:46.087Z,0.80
2023-02-25T10:07:46.037Z,0.60
2023-02-25T10:08:46.064Z,0.50
2023-02-25T10:09:46.021Z,0.70
2023-02-25T10:10:46.026Z,0.60
2023-02-25T10:11:46.000Z,0.60
2023-02-25T10:12:46.022Z,0.70
2023-02-25T10:13:45.977Z,0.70
2023-02-25T10:14:45.985Z,0.60
2023-02-25T10:15:52.238Z,0.90
2023-02-25T10:16:46.991Z,1.00
2023-02-25T10:17:45.920Z,0.90
2023-02-25T10:18:45.955Z,0.90
2023-02-25T10:19:45.910Z,0.90
2023-02-25T10:20:45.918Z,0.90
2023-02-25T10:21:45.878Z,0.90
2023-02-25T10:22:46.234Z,0.80
2023-02-25T10:23:45.859Z,0.70
2023-02-25T10:24:46.175Z,0.70
2023-02-25T10:25:46.857Z,0.90
2023-02-25T10:26:46.054Z,1.00
2023-02-25T10:27:45.818Z,1.00
2023-02-25T10:28:45.844Z,0.80
2023-02-25T10:29:45.795Z,1.00
2023-02-25T10:30:45.868Z,1.30
2023-02-25T10:31:46.120Z,1.50
2023-02-25T10:32:45.870Z,1.90
2023-02-25T10:33:45.753Z,1.30
2023-02-25T10:34:45.767Z,1.10
2023-02-25T10:35:45.731Z,1.40
2023-02-25T10:36:45.758Z,1.40
2023-02-25T10:37:45.704Z,1.60
2023-02-25T10:38:46.492Z,1.70
2023-02-25T10:39:45.706Z,1.10
2023-02-25T10:40:45.701Z,1.30
2023-02-25T10:41:45.677Z,1.50
2023-02-25T10:42:46.596Z,1.40
2023-02-25T10:43:45.690Z,1.20
2023-02-25T10:44:45.673Z,0.90
2023-02-25T10:45:46.612Z,0.80
2023-02-25T10:46:45.654Z,1.30
2023-02-25T10:47:45.651Z,1.20
2023-02-25T10:48:45.621Z,1.20
2023-02-25T10:49:45.596Z,1.20
2023-02-25T10:50:46.568Z,1.00
2023-02-25T10:51:45.538Z,1.60
2023-02-25T10:52:45.552Z,1.40
2023-02-25T10:53:45.526Z,1.40
2023-02-25T10:54:45.551Z,1.50
2023-02-25T10:55:45.501Z,1.50
2023-02-25T10:56:45.507Z,1.70
2023-02-25T10:57:45.461Z,1.40
2023-02-25T10:58:45.491Z,1.60
2023-02-25T10:59:45.466Z,1.40
2023-02-25T11:00:45.468Z,2.00
2023-02-25T11:01:45.480Z,1.60
2023-02-25T11:02:45.500Z,1.60
2023-02-25T11:03:45.402Z,1.60
2023-02-25T11:04:45.420Z,1.60
2023-02-25T11:05:45.400Z,1.50
2023-02-25T11:06:45.688Z,1.50
2023-02-25T11:07:45.376Z,1.80
2023-02-25T11:08:45.386Z,1.50
2023-02-25T11:09:45.342Z,1.70
2023-02-25T11:10:45.433Z,1.60
2023-02-25T11:11:45.311Z,1.80
2023-02-25T11:12:45.350Z,2.10
2023-02-25T11:13:45.329Z,1.70
2023-02-25T11:14:45.303Z,2.10
2023-02-25T11:15:46.696Z,1.80
2023-02-25T11:16:45.282Z,1.70
2023-02-25T11:17:45.244Z,2.70
2023-02-25T11:18:45.268Z,1.80
2023-02-25T11:19:45.235Z,2.00
2023-02-25T11:20:45.302Z,1.50
2023-02-25T11:21:45.225Z,1.60
2023-02-25T11:22:45.224Z,2.10
2023-02-25T11:23:46.003Z,1.90
2023-02-25T11:24:45.250Z,1.70
2023-02-25T11:25:45.171Z,1.70
2023-02-25T11:26:45.184Z,1.20
2023-02-25T11:27:45.160Z,1.70
2023-02-25T11:28:45.177Z,1.70
2023-02-25T11:29:45.132Z,1.40
2023-02-25T11:30:45.233Z,1.70
2023-02-25T11:31:45.283Z,1.30
2023-02-25T11:32:45.269Z,1.30
2023-02-25T11:33:45.071Z,1.40
2023-02-25T11:34:45.095Z,1.80
2023-02-25T11:35:45.039Z,1.20
2023-02-25T11:36:45.918Z,1.20
2023-02-25T11:37:45.721Z,1.10
2023-02-25T11:38:45.051Z,1.40
2023-02-25T11:39:44.991Z,1.30
2023-02-25T11:40:45.032Z,1.70
2023-02-25T11:41:44.972Z,1.60
2023-02-25T11:42:44.996Z,1.60
2023-02-25T11:43:44.982Z,1.60
2023-02-25T11:44:44.965Z,1.40
2023-02-25T11:45:44.938Z,1.00
2023-02-25T11:46:44.960Z,1.30
2023-02-25T11:47:45.746Z,1.60
2023-02-25T11:48:44.976Z,1.20
2023-02-25T11:49:44.886Z,1.30
2023-02-25T11:50:45.056Z,1.00
2023-02-25T11:51:44.855Z,1.30
2023-02-25T11:52:44.875Z,1.30
2023-02-25T11:53:44.892Z,1.60
2023-02-25T11:54:44.869Z,1.40
2023-02-25T11:55:44.835Z,1.20
2023-02-25T11:56:44.828Z,1.30
2023-02-25T11:57:44.802Z,1.50
2023-02-25T11:58:44.814Z,1.00
2023-02-25T11:59:44.776Z,1.30
2023-02-25T12:00:44.786Z,0.90
2023-02-25T12:01:44.744Z,0.90
2023-02-25T12:02:44.805Z,0.80
2023-02-25T12:03:44.727Z,0.80
2023-02-25T12:04:44.734Z,1.10
2023-02-25T12:05:44.748Z,0.90
2023-02-25T12:06:44.715Z,1.00
2023-02-25T12:07:59.852Z,0.90
2023-02-25T12:08:45.741Z,1.10
2023-02-25T12:09:44.685Z,1.00
2023-02-25T12:10:44.675Z,1.10
2023-02-25T12:11:44.625Z,0.90
2023-02-25T12:12:44.694Z,1.10
2023-02-25T12:13:44.666Z,1.30
2023-02-25T12:14:44.615Z,1.10
2023-02-25T12:15:44.583Z,1.20
2023-02-25T12:16:45.493Z,1.20
2023-02-25T12:17:44.565Z,0.90
2023-02-25T12:18:44.590Z,1.10
2023-02-25T12:19:44.561Z,0.80
2023-02-25T12:20:44.561Z,1.00
2023-02-25T12:21:44.521Z,1.10
2023-02-25T12:22:44.535Z,1.50
2023-02-25T12:23:44.504Z,1.20
2023-02-25T12:24:44.514Z,1.00
2023-02-25T12:25:44.505Z,1.00
2023-02-25T12:26:44.485Z,1.20
2023-02-25T12:27:44.464Z,1.30
2023-02-25T12:28:44.485Z,1.10
2023-02-25T12:29:44.434Z,1.00
2023-02-25T12:30:44.491Z,1.10
2023-02-25T12:31:44.550Z,1.10
2023-02-25T12:32:44.422Z,1.40
2023-02-25T12:33:44.415Z,1.00
2023-02-25T12:34:44.396Z,1.30
2023-02-25T12:35:44.361Z,1.20
2023-02-25T12:36:44.382Z,1.40
2023-02-25T12:37:44.347Z,1.90
2023-02-25T12:38:44.364Z,1.80
2023-02-25T12:39:44.323Z,2.50
2023-02-25T12:40:44.336Z,2.40
2023-02-25T12:41:44.295Z,1.60
2023-02-25T12:42:44.337Z,1.70
2023-02-25T12:43:44.285Z,1.80
2023-02-25T12:44:44.295Z,1.70
2023-02-25T12:45:44.304Z,1.70
2023-02-25T12:46:44.267Z,1.40
2023-02-25T12:47:44.233Z,1.70
2023-02-25T12:48:44.285Z,1.50
2023-02-25T12:49:44.212Z,1.70
2023-02-25T12:50:44.217Z,1.70
2023-02-25T12:51:44.195Z,1.50
2023-02-25T12:52:44.194Z,2.20
2023-02-25T12:53:44.165Z,1.50
2023-02-25T12:54:44.180Z,2.10
2023-02-25T12:55:44.146Z,1.60
2023-02-25T12:56:44.153Z,1.60
2023-02-25T12:57:44.114Z,2.00
2023-02-25T12:58:44.152Z,1.70
2023-02-25T12:59:44.101Z,1.40
2023-02-25T13:00:44.150Z,1.40
2023-02-25T13:01:44.104Z,1.60
2023-02-25T13:02:44.094Z,1.40
2023-02-25T13:03:44.108Z,1.90
2023-02-25T13:04:44.062Z,1.60
2023-02-25T13:05:44.033Z,1.60
2023-02-25T13:06:44.052Z,1.50
2023-02-25T13:07:44.003Z,1.50
2023-02-25T13:08:44.012Z,1.40
2023-02-25T13:09:43.991Z,1.40
2023-02-25T13:10:44.012Z,1.30
2023-02-25T13:12:10.066Z,1.40